sensor_id;sensor_type;location;lat;lon;timestamp;pressure;altitude;pressure_sealevel;temperature;humidity
14689;BME280;7432;48.728;9.154;2023-04-05T00:01:55;97057.16;;;0.83;67.30
14689;BME280;7432;48.728;9.154;2023-04-05T00:04:22;97058.88;;;0.83;67.19
14689;BME280;7432;48.728;9.154;2023-04-05T00:06:49;97057.81;;;0.87;67.13
14689;BME280;7432;48.728;9.154;2023-04-05T00:09:18;97053.19;;;0.93;67.68
14689;BME280;7432;48.728;9.154;2023-04-05T00:11:46;97050.75;;;0.92;67.75
14689;BME280;7432;48.728;9.154;2023-04-05T00:14:12;97060.44;;;0.99;66.89
14689;BME280;7432;48.728;9.154;2023-04-05T00:16:39;97063.69;;;1.01;66.57
14689;BME280;7432;48.728;9.154;2023-04-05T00:19:05;97052.94;;;0.98;67.25
14689;BME280;7432;48.728;9.154;2023-04-05T00:21:32;97046.59;;;1.05;67.28
14689;BME280;7432;48.728;9.154;2023-04-05T00:23:58;97048.41;;;1.03;65.77
14689;BME280;7432;48.728;9.154;2023-04-05T00:26:26;97039.09;;;1.03;67.06
14689;BME280;7432;48.728;9.154;2023-04-05T00:28:52;97040.47;;;1.09;65.47
14689;BME280;7432;48.728;9.154;2023-04-05T00:31:19;97036.38;;;1.20;65.92
14689;BME280;7432;48.728;9.154;2023-04-05T00:33:46;97031.75;;;1.13;65.88
14689;BME280;7432;48.728;9.154;2023-04-05T00:36:13;97028.78;;;1.06;66.98
14689;BME280;7432;48.728;9.154;2023-04-05T00:38:41;97032.22;;;1.05;67.26
14689;BME280;7432;48.728;9.154;2023-04-05T00:41:08;97029.16;;;1.14;67.28
14689;BME280;7432;48.728;9.154;2023-04-05T00:43:36;97031.13;;;1.09;67.23
14689;BME280;7432;48.728;9.154;2023-04-05T00:46:03;97027.88;;;1.07;66.93
14689;BME280;7432;48.728;9.154;2023-04-05T00:48:29;97024.06;;;1.00;67.09
14689;BME280;7432;48.728;9.154;2023-04-05T00:50:56;97026.06;;;0.95;67.01
14689;BME280;7432;48.728;9.154;2023-04-05T00:53:23;97024.06;;;1.00;68.08
14689;BME280;7432;48.728;9.154;2023-04-05T00:55:50;97017.97;;;0.89;68.43
14689;BME280;7432;48.728;9.154;2023-04-05T00:58:17;97017.69;;;0.93;68.09
14689;BME280;7432;48.728;9.154;2023-04-05T01:00:53;97019.69;;;0.88;68.17
14689;BME280;7432;48.728;9.154;2023-04-05T01:03:25;97000.69;;;0.81;68.67
14689;BME280;7432;48.728;9.154;2023-04-05T01:05:59;97001.88;;;0.90;68.06
14689;BME280;7432;48.728;9.154;2023-04-05T01:08:36;97000.50;;;0.84;67.35
14689;BME280;7432;48.728;9.154;2023-04-05T01:11:05;96993.41;;;0.75;68.74
14689;BME280;7432;48.728;9.154;2023-04-05T01:13:34;97000.47;;;0.70;69.66
14689;BME280;7432;48.728;9.154;2023-04-05T01:16:02;96993.53;;;0.74;69.44
14689;BME280;7432;48.728;9.154;2023-04-05T01:18:28;96994.69;;;0.68;69.94
14689;BME280;7432;48.728;9.154;2023-04-05T01:21:08;97000.00;;;0.64;69.91
14689;BME280;7432;48.728;9.154;2023-04-05T01:23:48;96991.19;;;0.55;70.53
14689;BME280;7432;48.728;9.154;2023-04-05T01:26:45;96987.78;;;0.56;70.08
14689;BME280;7432;48.728;9.154;2023-04-05T01:32:32;96975.28;;;0.53;69.96
14689;BME280;7432;48.728;9.154;2023-04-05T01:35:04;96976.00;;;0.55;70.53
14689;BME280;7432;48.728;9.154;2023-04-05T01:37:35;96974.72;;;0.48;70.63
14689;BME280;7432;48.728;9.154;2023-04-05T01:40:04;96972.69;;;0.39;70.78
14689;BME280;7432;48.728;9.154;2023-04-05T01:42:31;96967.47;;;0.42;70.70
14689;BME280;7432;48.728;9.154;2023-04-05T01:44:58;96968.72;;;0.35;71.75
14689;BME280;7432;48.728;9.154;2023-04-05T01:47:24;96976.06;;;0.39;71.70
14689;BME280;7432;48.728;9.154;2023-04-05T01:49:52;96966.81;;;0.38;72.11
14689;BME280;7432;48.728;9.154;2023-04-05T01:52:18;96968.00;;;0.33;72.33
14689;BME280;7432;48.728;9.154;2023-04-05T01:54:45;96966.25;;;0.33;71.93
14689;BME280;7432;48.728;9.154;2023-04-05T01:57:11;96969.09;;;0.43;71.54
14689;BME280;7432;48.728;9.154;2023-04-05T01:59:37;96969.09;;;0.43;71.17
14689;BME280;7432;48.728;9.154;2023-04-05T02:02:04;96962.19;;;0.31;72.03
14689;BME280;7432;48.728;9.154;2023-04-05T02:04:30;96963.16;;;0.28;72.19
14689;BME280;7432;48.728;9.154;2023-04-05T02:06:58;96962.13;;;0.32;72.18
14689;BME280;7432;48.728;9.154;2023-04-05T02:09:25;96959.44;;;0.20;71.75
14689;BME280;7432;48.728;9.154;2023-04-05T02:11:51;96963.44;;;0.24;71.93
14689;BME280;7432;48.728;9.154;2023-04-05T02:14:17;96953.69;;;0.32;71.95
14689;BME280;7432;48.728;9.154;2023-04-05T02:16:44;96956.88;;;0.35;71.48
14689;BME280;7432;48.728;9.154;2023-04-05T02:19:10;96952.53;;;0.37;71.44
14689;BME280;7432;48.728;9.154;2023-04-05T02:21:37;96951.16;;;0.32;71.16
14689;BME280;7432;48.728;9.154;2023-04-05T02:24:06;96952.66;;;0.20;72.41
14689;BME280;7432;48.728;9.154;2023-04-05T02:26:32;96947.59;;;0.20;72.22
14689;BME280;7432;48.728;9.154;2023-04-05T02:28:59;96952.81;;;0.17;71.96
14689;BME280;7432;48.728;9.154;2023-04-05T02:31:25;96945.72;;;0.24;72.39
14689;BME280;7432;48.728;9.154;2023-04-05T02:33:52;96943.00;;;0.27;71.43
14689;BME280;7432;48.728;9.154;2023-04-05T02:36:19;96948.97;;;0.26;71.96
14689;BME280;7432;48.728;9.154;2023-04-05T02:38:46;96944.25;;;0.20;72.58
14689;BME280;7432;48.728;9.154;2023-04-05T02:41:14;96937.00;;;0.14;72.71
14689;BME280;7432;48.728;9.154;2023-04-05T02:43:40;96951.84;;;0.20;72.84
14689;BME280;7432;48.728;9.154;2023-04-05T02:46:06;96949.31;;;0.20;73.08
14689;BME280;7432;48.728;9.154;2023-04-05T02:48:33;96947.53;;;0.22;72.63
14689;BME280;7432;48.728;9.154;2023-04-05T02:50:59;96943.41;;;0.19;73.08
14689;BME280;7432;48.728;9.154;2023-04-05T02:53:25;96944.25;;;0.20;72.99
14689;BME280;7432;48.728;9.154;2023-04-05T02:55:52;96934.00;;;0.07;73.36
14689;BME280;7432;48.728;9.154;2023-04-05T02:58:20;96936.09;;;0.15;73.00
14689;BME280;7432;48.728;9.154;2023-04-05T03:00:47;96937.00;;;0.14;73.23
14689;BME280;7432;48.728;9.154;2023-04-05T03:03:16;96940.81;;;0.21;73.60
14689;BME280;7432;48.728;9.154;2023-04-05T03:05:42;96933.94;;;0.23;73.17
14689;BME280;7432;48.728;9.154;2023-04-05T03:08:09;96937.63;;;0.17;73.44
14689;BME280;7432;48.728;9.154;2023-04-05T03:10:42;96936.09;;;0.15;72.89
14689;BME280;7432;48.728;9.154;2023-04-05T03:13:09;96934.72;;;0.09;73.44
14689;BME280;7432;48.728;9.154;2023-04-05T03:15:36;96941.25;;;0.13;73.01
14689;BME280;7432;48.728;9.154;2023-04-05T03:18:03;96931.19;;;0.12;72.17
14689;BME280;7432;48.728;9.154;2023-04-05T03:20:30;96934.72;;;0.09;72.63
14689;BME280;7432;48.728;9.154;2023-04-05T03:22:56;96931.47;;;0.07;73.10
14689;BME280;7432;48.728;9.154;2023-04-05T03:25:22;96925.75;;;0.04;73.32
14689;BME280;7432;48.728;9.154;2023-04-05T03:27:49;96930.81;;;0.04;73.14
14689;BME280;7432;48.728;9.154;2023-04-05T03:30:17;96937.44;;;-0.10;73.56
14689;BME280;7432;48.728;9.154;2023-04-05T03:32:44;96932.94;;;-0.05;73.96
14689;BME280;7432;48.728;9.154;2023-04-05T03:35:11;96926.06;;;-0.17;74.41
14689;BME280;7432;48.728;9.154;2023-04-05T03:37:40;96930.84;;;-0.12;74.23
14689;BME280;7432;48.728;9.154;2023-04-05T03:40:08;96930.72;;;-0.25;74.79
14689;BME280;7432;48.728;9.154;2023-04-05T03:42:34;96925.28;;;-0.19;74.86
14689;BME280;7432;48.728;9.154;2023-04-05T03:45:01;96926.13;;;-0.18;75.12
14689;BME280;7432;48.728;9.154;2023-04-05T03:47:30;96932.31;;;-0.24;75.06
14689;BME280;7432;48.728;9.154;2023-04-05T03:49:57;96929.06;;;-0.26;74.99
14689;BME280;7432;48.728;9.154;2023-04-05T03:52:24;96928.34;;;-0.28;75.30
14689;BME280;7432;48.728;9.154;2023-04-05T03:54:51;96929.56;;;-0.35;75.27
14689;BME280;7432;48.728;9.154;2023-04-05T03:57:17;96920.44;;;-0.37;75.96
14689;BME280;7432;48.728;9.154;2023-04-05T03:59:43;96921.50;;;-0.41;75.96
14689;BME280;7432;48.728;9.154;2023-04-05T04:02:10;96922.50;;;-0.44;76.58
14689;BME280;7432;48.728;9.154;2023-04-05T04:04:36;96926.72;;;-0.44;76.26
14689;BME280;7432;48.728;9.154;2023-04-05T04:07:04;96925.25;;;-0.48;76.56
14689;BME280;7432;48.728;9.154;2023-04-05T04:09:31;96916.78;;;-0.47;76.27
14689;BME280;7432;48.728;9.154;2023-04-05T04:11:57;96919.56;;;-0.52;76.43
14689;BME280;7432;48.728;9.154;2023-04-05T04:14:23;96923.69;;;-0.51;76.15
14689;BME280;7432;48.728;9.154;2023-04-05T04:16:50;96927.03;;;-0.50;76.35
14689;BME280;7432;48.728;9.154;2023-04-05T04:19:17;96924.53;;;-0.66;76.80
14689;BME280;7432;48.728;9.154;2023-04-05T04:21:43;96922.56;;;-0.61;76.05
14689;BME280;7432;48.728;9.154;2023-04-05T04:24:16;96927.84;;;-0.66;76.49
14689;BME280;7432;48.728;9.154;2023-04-05T04:26:44;96924.03;;;-0.57;75.83
14689;BME280;7432;48.728;9.154;2023-04-05T04:29:10;96922.56;;;-0.61;75.38
14689;BME280;7432;48.728;9.154;2023-04-05T04:31:40;96921.91;;;-0.65;75.56
14689;BME280;7432;48.728;9.154;2023-04-05T04:34:10;96922.72;;;-0.64;75.69
14689;BME280;7432;48.728;9.154;2023-04-05T04:36:37;96933.88;;;-0.68;75.98
14689;BME280;7432;48.728;9.154;2023-04-05T04:39:06;96919.84;;;-0.74;76.50
14689;BME280;7432;48.728;9.154;2023-04-05T04:41:35;96917.94;;;-0.69;76.08
14689;BME280;7432;48.728;9.154;2023-04-05T04:44:02;96922.00;;;-0.66;76.00
14689;BME280;7432;48.728;9.154;2023-04-05T04:46:29;96918.91;;;-0.71;75.78
14689;BME280;7432;48.728;9.154;2023-04-05T04:48:58;96923.63;;;-0.65;76.07
14689;BME280;7432;48.728;9.154;2023-04-05T04:51:25;96925.66;;;-0.72;76.11
14689;BME280;7432;48.728;9.154;2023-04-05T04:53:51;96921.50;;;-0.73;76.32
14689;BME280;7432;48.728;9.154;2023-04-05T04:56:18;96928.34;;;-0.75;76.21
14689;BME280;7432;48.728;9.154;2023-04-05T04:58:46;96927.78;;;-0.80;76.94
14689;BME280;7432;48.728;9.154;2023-04-05T05:01:12;96931.59;;;-0.73;76.74
14689;BME280;7432;48.728;9.154;2023-04-05T05:03:39;96927.53;;;-0.75;76.83
14689;BME280;7432;48.728;9.154;2023-04-05T05:06:06;96930.38;;;-0.81;76.98
14689;BME280;7432;48.728;9.154;2023-04-05T05:08:33;96923.78;;;-0.68;76.89
14689;BME280;7432;48.728;9.154;2023-04-05T05:10:59;96937.47;;;-0.72;77.12
14689;BME280;7432;48.728;9.154;2023-04-05T05:13:25;96937.31;;;-0.69;77.13
14689;BME280;7432;48.728;9.154;2023-04-05T05:15:53;96941.31;;;-0.65;76.88
14689;BME280;7432;48.728;9.154;2023-04-05T05:18:20;96942.06;;;-0.63;77.35
14689;BME280;7432;48.728;9.154;2023-04-05T05:20:49;96945.22;;;-0.60;77.31
14689;BME280;7432;48.728;9.154;2023-04-05T05:23:16;96938.56;;;-0.61;77.24
14689;BME280;7432;48.728;9.154;2023-04-05T05:25:45;96938.63;;;-0.46;76.91
14689;BME280;7432;48.728;9.154;2023-04-05T05:28:11;96945.06;;;-0.41;76.71
14689;BME280;7432;48.728;9.154;2023-04-05T05:30:37;96943.13;;;-0.36;76.63
14689;BME280;7432;48.728;9.154;2023-04-05T05:33:05;96943.75;;;-0.17;76.14
14689;BME280;7432;48.728;9.154;2023-04-05T05:35:32;96930.88;;;0.18;75.39
14689;BME280;7432;48.728;9.154;2023-04-05T05:37:58;96939.63;;;0.56;73.82
14689;BME280;7432;48.728;9.154;2023-04-05T05:40:25;96942.09;;;0.86;72.84
14689;BME280;7432;48.728;9.154;2023-04-05T05:42:51;96939.69;;;0.98;72.15
14689;BME280;7432;48.728;9.154;2023-04-05T05:45:18;96938.41;;;1.05;71.40
14689;BME280;7432;48.728;9.154;2023-04-05T05:47:44;96937.88;;;1.00;71.81
14689;BME280;7432;48.728;9.154;2023-04-05T05:50:12;96938.47;;;1.04;72.13
14689;BME280;7432;48.728;9.154;2023-04-05T05:52:40;96934.34;;;1.03;71.37
14689;BME280;7432;48.728;9.154;2023-04-05T05:55:07;96931.34;;;0.96;71.55
14689;BME280;7432;48.728;9.154;2023-04-05T05:57:33;96940.41;;;1.00;72.04
14689;BME280;7432;48.728;9.154;2023-04-05T06:00:00;96935.28;;;1.29;71.99
14689;BME280;7432;48.728;9.154;2023-04-05T06:02:28;96937.41;;;1.90;70.16
14689;BME280;7432;48.728;9.154;2023-04-05T06:04:56;96933.09;;;2.44;68.08
14689;BME280;7432;48.728;9.154;2023-04-05T06:07:24;96942.78;;;3.02;64.86
14689;BME280;7432;48.728;9.154;2023-04-05T06:09:51;96934.47;;;3.48;63.85
14689;BME280;7432;48.728;9.154;2023-04-05T06:12:19;96946.72;;;4.03;62.24
14689;BME280;7432;48.728;9.154;2023-04-05T06:14:46;96944.91;;;4.16;60.35
14689;BME280;7432;48.728;9.154;2023-04-05T06:17:12;96945.03;;;4.15;60.73
14689;BME280;7432;48.728;9.154;2023-04-05T06:19:38;96943.50;;;3.89;60.62
14689;BME280;7432;48.728;9.154;2023-04-05T06:22:05;96948.38;;;3.68;60.61
14689;BME280;7432;48.728;9.154;2023-04-05T06:24:33;96940.88;;;3.78;61.10
14689;BME280;7432;48.728;9.154;2023-04-05T06:26:59;96955.91;;;4.52;58.72
14689;BME280;7432;48.728;9.154;2023-04-05T06:29:26;96947.63;;;5.72;55.50
14689;BME280;7432;48.728;9.154;2023-04-05T06:31:54;96942.06;;;6.73;52.42
14689;BME280;7432;48.728;9.154;2023-04-05T06:34:20;96952.41;;;7.13;50.71
14689;BME280;7432;48.728;9.154;2023-04-05T06:36:47;96958.22;;;7.95;45.42
14689;BME280;7432;48.728;9.154;2023-04-05T06:39:13;96952.66;;;9.41;42.51
14689;BME280;7432;48.728;9.154;2023-04-05T06:41:41;96950.88;;;11.28;38.55
14689;BME280;7432;48.728;9.154;2023-04-05T06:44:07;96959.19;;;12.80;35.17
14689;BME280;7432;48.728;9.154;2023-04-05T06:46:34;96959.38;;;13.65;33.90
14689;BME280;7432;48.728;9.154;2023-04-05T06:49:00;96953.53;;;14.02;32.58
14689;BME280;7432;48.728;9.154;2023-04-05T06:51:27;96946.81;;;15.07;30.49
14689;BME280;7432;48.728;9.154;2023-04-05T06:53:53;96961.22;;;15.09;29.63
14689;BME280;7432;48.728;9.154;2023-04-05T06:56:20;96965.31;;;15.04;29.89
14689;BME280;7432;48.728;9.154;2023-04-05T06:58:48;96966.56;;;14.93;29.76
14689;BME280;7432;48.728;9.154;2023-04-05T07:01:15;96964.50;;;15.70;29.49
14689;BME280;7432;48.728;9.154;2023-04-05T07:03:42;96966.56;;;13.86;31.06
14689;BME280;7432;48.728;9.154;2023-04-05T07:06:09;96966.28;;;14.43;30.37
14689;BME280;7432;48.728;9.154;2023-04-05T07:08:36;96967.72;;;13.37;31.03
14689;BME280;7432;48.728;9.154;2023-04-05T07:11:02;96970.84;;;13.71;31.09
14689;BME280;7432;48.728;9.154;2023-04-05T07:13:28;96971.47;;;12.45;32.92
14689;BME280;7432;48.728;9.154;2023-04-05T07:16:00;96968.38;;;12.50;32.81
14689;BME280;7432;48.728;9.154;2023-04-05T07:18:26;96979.19;;;13.89;30.83
14689;BME280;7432;48.728;9.154;2023-04-05T07:20:55;96972.00;;;14.30;30.45
14689;BME280;7432;48.728;9.154;2023-04-05T07:23:24;96972.88;;;14.22;30.50
14689;BME280;7432;48.728;9.154;2023-04-05T07:25:50;96974.53;;;13.05;31.36
14689;BME280;7432;48.728;9.154;2023-04-05T07:28:17;96963.72;;;12.37;32.75
14689;BME280;7432;48.728;9.154;2023-04-05T07:30:43;96970.91;;;11.42;33.34
14689;BME280;7432;48.728;9.154;2023-04-05T07:33:11;96970.38;;;10.44;35.14
14689;BME280;7432;48.728;9.154;2023-04-05T07:35:37;96968.25;;;10.39;35.32
14689;BME280;7432;48.728;9.154;2023-04-05T07:38:03;96966.13;;;9.26;36.06
14689;BME280;7432;48.728;9.154;2023-04-05T07:40:30;96966.09;;;8.79;37.68
14689;BME280;7432;48.728;9.154;2023-04-05T07:42:56;96972.13;;;8.21;37.84
14689;BME280;7432;48.728;9.154;2023-04-05T07:45:22;96965.00;;;7.65;39.79
14689;BME280;7432;48.728;9.154;2023-04-05T07:47:49;96970.00;;;7.06;42.15
14689;BME280;7432;48.728;9.154;2023-04-05T07:50:16;96972.00;;;7.63;40.92
14689;BME280;7432;48.728;9.154;2023-04-05T07:52:43;96977.59;;;7.78;39.52
14689;BME280;7432;48.728;9.154;2023-04-05T07:55:09;96970.97;;;8.63;38.93
14689;BME280;7432;48.728;9.154;2023-04-05T07:57:36;96972.72;;;11.16;35.18
14689;BME280;7432;48.728;9.154;2023-04-05T08:00:03;96979.34;;;12.28;33.59
14689;BME280;7432;48.728;9.154;2023-04-05T08:02:34;96985.13;;;13.51;31.33
14689;BME280;7432;48.728;9.154;2023-04-05T08:05:01;96978.06;;;16.01;29.16
14689;BME280;7432;48.728;9.154;2023-04-05T08:07:29;96979.69;;;17.85;26.59
14689;BME280;7432;48.728;9.154;2023-04-05T08:09:55;96985.84;;;19.11;26.08
14689;BME280;7432;48.728;9.154;2023-04-05T08:12:24;96982.53;;;21.33;23.33
14689;BME280;7432;48.728;9.154;2023-04-05T08:14:50;96981.25;;;20.86;22.98
14689;BME280;7432;48.728;9.154;2023-04-05T08:17:17;96991.66;;;21.91;22.39
14689;BME280;7432;48.728;9.154;2023-04-05T08:19:44;96986.00;;;22.42;21.07
14689;BME280;7432;48.728;9.154;2023-04-05T08:22:10;96986.50;;;22.32;20.98
14689;BME280;7432;48.728;9.154;2023-04-05T08:24:38;96989.94;;;22.33;20.98
14689;BME280;7432;48.728;9.154;2023-04-05T08:27:04;96986.84;;;22.95;20.42
14689;BME280;7432;48.728;9.154;2023-04-05T08:29:31;96980.41;;;23.21;19.17
14689;BME280;7432;48.728;9.154;2023-04-05T08:31:57;96979.63;;;24.30;18.93
14689;BME280;7432;48.728;9.154;2023-04-05T08:34:23;96993.28;;;25.67;18.04
14689;BME280;7432;48.728;9.154;2023-04-05T08:36:50;96981.50;;;24.06;18.87
14689;BME280;7432;48.728;9.154;2023-04-05T08:39:16;96980.41;;;22.68;19.28
14689;BME280;7432;48.728;9.154;2023-04-05T08:41:55;96987.78;;;25.02;18.78
14689;BME280;7432;48.728;9.154;2023-04-05T08:44:27;96982.66;;;25.28;19.00
14689;BME280;7432;48.728;9.154;2023-04-05T08:46:57;96989.69;;;27.13;18.10
14689;BME280;7432;48.728;9.154;2023-04-05T08:49:23;96999.34;;;27.66;16.88
14689;BME280;7432;48.728;9.154;2023-04-05T08:51:50;96983.19;;;26.94;16.64
14689;BME280;7432;48.728;9.154;2023-04-05T08:54:16;96985.22;;;28.69;16.42
14689;BME280;7432;48.728;9.154;2023-04-05T08:56:47;96993.03;;;28.19;15.37
14689;BME280;7432;48.728;9.154;2023-04-05T08:59:15;96984.75;;;24.93;17.45
14689;BME280;7432;48.728;9.154;2023-04-05T09:01:44;96991.84;;;25.26;17.08
14689;BME280;7432;48.728;9.154;2023-04-05T09:04:15;96986.75;;;24.86;17.35
14689;BME280;7432;48.728;9.154;2023-04-05T09:06:43;96990.50;;;25.23;17.35
14689;BME280;7432;48.728;9.154;2023-04-05T09:09:10;96986.38;;;23.51;18.84
14689;BME280;7432;48.728;9.154;2023-04-05T09:11:37;96987.75;;;23.54;17.75
14689;BME280;7432;48.728;9.154;2023-04-05T09:14:06;96987.13;;;23.29;18.38
14689;BME280;7432;48.728;9.154;2023-04-05T09:16:33;96977.06;;;23.95;18.67
14689;BME280;7432;48.728;9.154;2023-04-05T09:19:01;96987.59;;;23.95;17.63
14689;BME280;7432;48.728;9.154;2023-04-05T09:21:28;96987.94;;;26.43;17.25
14689;BME280;7432;48.728;9.154;2023-04-05T09:23:54;96977.91;;;24.24;17.90
14689;BME280;7432;48.728;9.154;2023-04-05T09:26:22;96989.19;;;25.76;17.17
14689;BME280;7432;48.728;9.154;2023-04-05T09:28:49;96991.91;;;27.63;16.51
14689;BME280;7432;48.728;9.154;2023-04-05T09:31:33;96988.91;;;25.94;16.95
14689;BME280;7432;48.728;9.154;2023-04-05T09:34:01;96990.19;;;26.57;15.85
14689;BME280;7432;48.728;9.154;2023-04-05T09:36:28;96982.75;;;27.07;15.72
14689;BME280;7432;48.728;9.154;2023-04-05T09:39:04;96979.19;;;27.60;15.58
14689;BME280;7432;48.728;9.154;2023-04-05T09:41:31;96974.91;;;26.85;16.54
14689;BME280;7432;48.728;9.154;2023-04-05T09:43:57;96981.63;;;25.63;16.33
14689;BME280;7432;48.728;9.154;2023-04-05T09:46:31;96977.34;;;27.60;16.25
14689;BME280;7432;48.728;9.154;2023-04-05T09:48:59;96977.09;;;26.93;16.02
14689;BME280;7432;48.728;9.154;2023-04-05T09:51:31;96980.19;;;26.37;16.91
14689;BME280;7432;48.728;9.154;2023-04-05T09:54:00;96975.94;;;24.59;18.00
14689;BME280;7432;48.728;9.154;2023-04-05T09:56:28;96971.88;;;22.84;18.87
14689;BME280;7432;48.728;9.154;2023-04-05T09:58:59;96965.84;;;20.46;20.50
14689;BME280;7432;48.728;9.154;2023-04-05T10:01:27;96966.44;;;17.73;22.53
14689;BME280;7432;48.728;9.154;2023-04-05T10:03:56;96963.75;;;15.32;25.09
14689;BME280;7432;48.728;9.154;2023-04-05T10:06:33;96958.34;;;14.67;27.42
14689;BME280;7432;48.728;9.154;2023-04-05T10:09:01;96954.69;;;14.00;26.19
14689;BME280;7432;48.728;9.154;2023-04-05T10:11:27;96956.53;;;13.36;27.17
14689;BME280;7432;48.728;9.154;2023-04-05T10:13:54;96946.75;;;12.91;27.83
14689;BME280;7432;48.728;9.154;2023-04-05T10:16:24;96946.34;;;12.06;30.80
14689;BME280;7432;48.728;9.154;2023-04-05T10:18:53;96928.78;;;12.01;31.15
14689;BME280;7432;48.728;9.154;2023-04-05T10:21:21;96933.06;;;11.76;30.46
14689;BME280;7432;48.728;9.154;2023-04-05T10:23:53;96930.53;;;11.59;32.04
14689;BME280;7432;48.728;9.154;2023-04-05T10:26:28;96928.84;;;11.34;31.33
14689;BME280;7432;48.728;9.154;2023-04-05T10:29:01;96927.50;;;11.29;31.30
14689;BME280;7432;48.728;9.154;2023-04-05T10:31:39;96921.44;;;11.39;32.00
14689;BME280;7432;48.728;9.154;2023-04-05T10:34:18;96930.50;;;10.91;33.49
14689;BME280;7432;48.728;9.154;2023-04-05T10:36:52;96927.25;;;10.63;34.43
14689;BME280;7432;48.728;9.154;2023-04-05T10:39:26;96915.81;;;10.23;32.74
14689;BME280;7432;48.728;9.154;2023-04-05T10:41:54;96922.50;;;10.16;33.74
14689;BME280;7432;48.728;9.154;2023-04-05T10:44:24;96920.06;;;10.14;34.71
14689;BME280;7432;48.728;9.154;2023-04-05T10:46:52;96927.84;;;10.04;34.70
14689;BME280;7432;48.728;9.154;2023-04-05T10:49:21;96932.59;;;9.54;35.77
14689;BME280;7432;48.728;9.154;2023-04-05T10:51:47;96920.97;;;9.78;33.52
14689;BME280;7432;48.728;9.154;2023-04-05T10:54:14;96918.91;;;9.81;35.91
14689;BME280;7432;48.728;9.154;2023-04-05T10:56:43;96921.13;;;9.94;37.74
14689;BME280;7432;48.728;9.154;2023-04-05T10:59:11;96926.44;;;9.65;35.67
14689;BME280;7432;48.728;9.154;2023-04-05T11:01:38;96922.09;;;9.02;36.20
14689;BME280;7432;48.728;9.154;2023-04-05T11:04:13;96916.66;;;9.14;35.82
14689;BME280;7432;48.728;9.154;2023-04-05T11:06:40;96918.88;;;9.36;36.01
14689;BME280;7432;48.728;9.154;2023-04-05T11:09:11;96915.75;;;9.70;37.43
14689;BME280;7432;48.728;9.154;2023-04-05T11:11:40;96915.25;;;10.01;34.07
14689;BME280;7432;48.728;9.154;2023-04-05T11:14:19;96916.25;;;9.73;36.57
14689;BME280;7432;48.728;9.154;2023-04-05T11:16:47;96907.94;;;9.62;34.63
14689;BME280;7432;48.728;9.154;2023-04-05T11:19:15;96912.84;;;9.55;34.27
14689;BME280;7432;48.728;9.154;2023-04-05T11:21:42;96909.78;;;9.42;33.71
14689;BME280;7432;48.728;9.154;2023-04-05T11:24:09;96908.13;;;9.14;33.67
14689;BME280;7432;48.728;9.154;2023-04-05T11:26:52;96898.97;;;9.02;36.28
14689;BME280;7432;48.728;9.154;2023-04-05T11:29:45;96897.88;;;9.14;34.33
14689;BME280;7432;48.728;9.154;2023-04-05T11:32:15;96897.31;;;9.10;37.35
14689;BME280;7432;48.728;9.154;2023-04-05T11:34:42;96891.19;;;9.21;37.63
14689;BME280;7432;48.728;9.154;2023-04-05T11:37:09;96894.00;;;9.37;35.26
14689;BME280;7432;48.728;9.154;2023-04-05T11:39:36;96883.66;;;9.46;35.26
14689;BME280;7432;48.728;9.154;2023-04-05T11:42:04;96888.78;;;9.19;36.13
14689;BME280;7432;48.728;9.154;2023-04-05T11:44:42;96879.13;;;9.04;36.33
14689;BME280;7432;48.728;9.154;2023-04-05T11:47:10;96874.16;;;8.92;35.77
14689;BME280;7432;48.728;9.154;2023-04-05T11:49:37;96882.06;;;9.09;36.81
14689;BME280;7432;48.728;9.154;2023-04-05T11:52:12;96883.69;;;9.10;35.35
14689;BME280;7432;48.728;9.154;2023-04-05T11:54:39;96879.75;;;9.15;35.89
14689;BME280;7432;48.728;9.154;2023-04-05T11:57:11;96873.75;;;9.51;35.42
14689;BME280;7432;48.728;9.154;2023-04-05T11:59:37;96869.94;;;9.56;36.19
14689;BME280;7432;48.728;9.154;2023-04-05T12:02:04;96870.13;;;9.44;37.02
14689;BME280;7432;48.728;9.154;2023-04-05T12:04:33;96870.78;;;9.29;36.27
14689;BME280;7432;48.728;9.154;2023-04-05T12:07:11;96874.56;;;9.25;35.86
14689;BME280;7432;48.728;9.154;2023-04-05T12:10:00;96867.78;;;9.24;34.51
14689;BME280;7432;48.728;9.154;2023-04-05T12:12:28;96864.41;;;8.96;35.86
14689;BME280;7432;48.728;9.154;2023-04-05T12:14:58;96858.97;;;8.99;36.06
14689;BME280;7432;48.728;9.154;2023-04-05T12:17:42;96856.09;;;9.12;36.78
14689;BME280;7432;48.728;9.154;2023-04-05T12:20:11;96848.94;;;9.15;35.64
14689;BME280;7432;48.728;9.154;2023-04-05T12:22:39;96848.38;;;9.12;34.32
14689;BME280;7432;48.728;9.154;2023-04-05T12:25:07;96844.66;;;9.24;35.80
14689;BME280;7432;48.728;9.154;2023-04-05T12:27:34;96841.25;;;9.33;37.03
14689;BME280;7432;48.728;9.154;2023-04-05T12:30:08;96832.81;;;9.40;35.27
14689;BME280;7432;48.728;9.154;2023-04-05T12:32:44;96838.13;;;9.57;35.78
14689;BME280;7432;48.728;9.154;2023-04-05T12:35:14;96842.16;;;9.14;34.92
14689;BME280;7432;48.728;9.154;2023-04-05T12:37:41;96844.25;;;9.01;35.53
14689;BME280;7432;48.728;9.154;2023-04-05T12:40:09;96838.75;;;9.23;35.15
14689;BME280;7432;48.728;9.154;2023-04-05T12:42:37;96832.06;;;9.30;35.48
14689;BME280;7432;48.728;9.154;2023-04-05T12:45:05;96838.94;;;9.12;36.25
14689;BME280;7432;48.728;9.154;2023-04-05T12:47:33;96836.56;;;8.91;36.87
14689;BME280;7432;48.728;9.154;2023-04-05T12:50:14;96836.28;;;8.94;36.32
14689;BME280;7432;48.728;9.154;2023-04-05T12:52:54;96826.19;;;8.83;35.29
14689;BME280;7432;48.728;9.154;2023-04-05T12:55:21;96830.16;;;9.05;37.14
14689;BME280;7432;48.728;9.154;2023-04-05T12:57:54;96823.97;;;8.98;37.12
14689;BME280;7432;48.728;9.154;2023-04-05T13:00:24;96821.31;;;8.90;37.73
14689;BME280;7432;48.728;9.154;2023-04-05T13:02:52;96815.75;;;8.94;36.67
14689;BME280;7432;48.728;9.154;2023-04-05T13:05:22;96806.00;;;8.98;35.80
14689;BME280;7432;48.728;9.154;2023-04-05T13:07:49;96813.00;;;9.06;36.65
14689;BME280;7432;48.728;9.154;2023-04-05T13:10:16;96809.03;;;9.38;37.74
14689;BME280;7432;48.728;9.154;2023-04-05T13:12:42;96811.31;;;9.59;37.31
14689;BME280;7432;48.728;9.154;2023-04-05T13:15:09;96804.94;;;9.81;37.27
14689;BME280;7432;48.728;9.154;2023-04-05T13:17:36;96796.97;;;9.92;36.26
14689;BME280;7432;48.728;9.154;2023-04-05T13:20:03;96798.03;;;9.99;35.69
14689;BME280;7432;48.728;9.154;2023-04-05T13:22:31;96796.91;;;10.01;36.58
14689;BME280;7432;48.728;9.154;2023-04-05T13:24:57;96797.44;;;10.05;37.42
14689;BME280;7432;48.728;9.154;2023-04-05T13:27:23;96796.69;;;9.95;35.98